sensor_id;sensor_type;location;lat;lon;timestamp;P1;durP1;ratioP1;P2;durP2;ratioP2
77451;SDS011;66537;52.370;4.832;2023-03-14T00:01:32;13.43;;;1.60;;
77451;SDS011;66537;52.370;4.832;2023-03-14T00:03:58;14.70;;;1.93;;
77451;SDS011;66537;52.370;4.832;2023-03-14T00:06:24;19.25;;;2.30;;
77451;SDS011;66537;52.370;4.832;2023-03-14T00:08:50;11.35;;;1.38;;
77451;SDS011;66537;52.370;4.832;2023-03-14T00:11:18;13.95;;;2.17;;
77451;SDS011;66537;52.370;4.832;2023-03-14T00:13:51;15.70;;;1.95;;
77451;SDS011;66537;52.370;4.832;2023-03-14T00:16:17;15.32;;;2.17;;
77451;SDS011;66537;52.370;4.832;2023-03-14T00:18:42;16.48;;;2.33;;
77451;SDS011;66537;52.370;4.832;2023-03-14T00:21:09;15.45;;;1.98;;
77451;SDS011;66537;52.370;4.832;2023-03-14T00:23:36;14.85;;;2.03;;
77451;SDS011;66537;52.370;4.832;2023-03-14T00:26:04;16.38;;;2.75;;
77451;SDS011;66537;52.370;4.832;2023-03-14T00:28:34;13.88;;;1.42;;
77451;SDS011;66537;52.370;4.832;2023-03-14T00:31:02;13.65;;;2.20;;
77451;SDS011;66537;52.370;4.832;2023-03-14T00:33:28;14.48;;;1.75;;
77451;SDS011;66537;52.370;4.832;2023-03-14T00:35:58;19.00;;;1.58;;
77451;SDS011;66537;52.370;4.832;2023-03-14T00:38:26;11.48;;;2.10;;
77451;SDS011;66537;52.370;4.832;2023-03-14T00:40:52;10.85;;;1.40;;
77451;SDS011;66537;52.370;4.832;2023-03-14T00:43:18;14.93;;;1.60;;
77451;SDS011;66537;52.370;4.832;2023-03-14T00:45:46;15.63;;;1.10;;
77451;SDS011;66537;52.370;4.832;2023-03-14T00:48:12;14.60;;;1.67;;
77451;SDS011;66537;52.370;4.832;2023-03-14T00:50:38;16.92;;;2.03;;
77451;SDS011;66537;52.370;4.832;2023-03-14T00:53:03;13.52;;;2.42;;
77451;SDS011;66537;52.370;4.832;2023-03-14T00:55:29;12.00;;;1.52;;
77451;SDS011;66537;52.370;4.832;2023-03-14T00:57:54;15.37;;;2.03;;
77451;SDS011;66537;52.370;4.832;2023-03-14T01:00:19;10.93;;;1.13;;
77451;SDS011;66537;52.370;4.832;2023-03-14T01:02:45;11.57;;;1.65;;
77451;SDS011;66537;52.370;4.832;2023-03-14T01:05:10;13.85;;;1.58;;
77451;SDS011;66537;52.370;4.832;2023-03-14T01:07:36;15.15;;;1.60;;
77451;SDS011;66537;52.370;4.832;2023-03-14T01:10:02;14.68;;;2.53;;
77451;SDS011;66537;52.370;4.832;2023-03-14T01:12:32;12.20;;;1.95;;
77451;SDS011;66537;52.370;4.832;2023-03-14T01:14:58;14.07;;;1.25;;
77451;SDS011;66537;52.370;4.832;2023-03-14T01:17:33;12.50;;;1.55;;
77451;SDS011;66537;52.370;4.832;2023-03-14T01:19:59;21.48;;;2.50;;
77451;SDS011;66537;52.370;4.832;2023-03-14T01:22:25;18.23;;;2.22;;
77451;SDS011;66537;52.370;4.832;2023-03-14T01:24:50;21.80;;;1.95;;
77451;SDS011;66537;52.370;4.832;2023-03-14T01:27:16;19.20;;;3.07;;
77451;SDS011;66537;52.370;4.832;2023-03-14T01:29:41;16.70;;;2.28;;
77451;SDS011;66537;52.370;4.832;2023-03-14T01:32:07;20.53;;;2.83;;
77451;SDS011;66537;52.370;4.832;2023-03-14T01:34:32;20.55;;;2.40;;
77451;SDS011;66537;52.370;4.832;2023-03-14T01:36:57;23.70;;;2.38;;
77451;SDS011;66537;52.370;4.832;2023-03-14T01:39:23;26.00;;;3.50;;
77451;SDS011;66537;52.370;4.832;2023-03-14T01:41:48;17.85;;;2.40;;
77451;SDS011;66537;52.370;4.832;2023-03-14T01:44:13;20.60;;;2.42;;
77451;SDS011;66537;52.370;4.832;2023-03-14T01:46:45;18.75;;;2.58;;
77451;SDS011;66537;52.370;4.832;2023-03-14T01:49:17;24.75;;;3.53;;
77451;SDS011;66537;52.370;4.832;2023-03-14T01:52:02;18.05;;;2.65;;
77451;SDS011;66537;52.370;4.832;2023-03-14T01:54:33;23.05;;;2.80;;
77451;SDS011;66537;52.370;4.832;2023-03-14T01:59:39;23.00;;;2.67;;
77451;SDS011;66537;52.370;4.832;2023-03-14T02:02:09;24.40;;;2.92;;
77451;SDS011;66537;52.370;4.832;2023-03-14T02:04:36;23.85;;;2.95;;
77451;SDS011;66537;52.370;4.832;2023-03-14T02:09:43;19.98;;;3.00;;
77451;SDS011;66537;52.370;4.832;2023-03-14T02:12:09;20.98;;;2.80;;
77451;SDS011;66537;52.370;4.832;2023-03-14T02:14:38;22.25;;;2.58;;
77451;SDS011;66537;52.370;4.832;2023-03-14T02:17:05;22.88;;;2.13;;
77451;SDS011;66537;52.370;4.832;2023-03-14T02:22:35;18.23;;;2.30;;
77451;SDS011;66537;52.370;4.832;2023-03-14T02:27:59;20.25;;;2.30;;
77451;SDS011;66537;52.370;4.832;2023-03-14T02:30:27;21.67;;;2.45;;
77451;SDS011;66537;52.370;4.832;2023-03-14T02:32:57;17.20;;;2.65;;
77451;SDS011;66537;52.370;4.832;2023-03-14T02:35:27;18.80;;;2.22;;
77451;SDS011;66537;52.370;4.832;2023-03-14T02:40:20;20.53;;;2.97;;
77451;SDS011;66537;52.370;4.832;2023-03-14T02:42:45;20.30;;;2.22;;
77451;SDS011;66537;52.370;4.832;2023-03-14T02:47:37;23.30;;;2.43;;
77451;SDS011;66537;52.370;4.832;2023-03-14T02:50:10;11.98;;;2.40;;
77451;SDS011;66537;52.370;4.832;2023-03-14T02:52:39;23.05;;;2.85;;
77451;SDS011;66537;52.370;4.832;2023-03-14T02:55:04;17.92;;;2.95;;
77451;SDS011;66537;52.370;4.832;2023-03-14T02:57:30;18.13;;;2.72;;
77451;SDS011;66537;52.370;4.832;2023-03-14T02:59:59;16.10;;;2.20;;
77451;SDS011;66537;52.370;4.832;2023-03-14T03:02:25;16.05;;;2.28;;
77451;SDS011;66537;52.370;4.832;2023-03-14T03:04:52;12.48;;;1.92;;
77451;SDS011;66537;52.370;4.832;2023-03-14T03:07:17;17.27;;;2.50;;
77451;SDS011;66537;52.370;4.832;2023-03-14T03:09:44;15.45;;;2.38;;
77451;SDS011;66537;52.370;4.832;2023-03-14T03:12:09;9.95;;;1.75;;
77451;SDS011;66537;52.370;4.832;2023-03-14T03:14:35;17.02;;;1.92;;
77451;SDS011;66537;52.370;4.832;2023-03-14T03:17:00;15.80;;;2.20;;
77451;SDS011;66537;52.370;4.832;2023-03-14T03:19:25;11.13;;;1.50;;
77451;SDS011;66537;52.370;4.832;2023-03-14T03:21:51;13.57;;;1.67;;
77451;SDS011;66537;52.370;4.832;2023-03-14T03:24:16;14.43;;;2.13;;
77451;SDS011;66537;52.370;4.832;2023-03-14T03:26:41;20.17;;;2.20;;
77451;SDS011;66537;52.370;4.832;2023-03-14T03:29:07;14.67;;;2.60;;
77451;SDS011;66537;52.370;4.832;2023-03-14T03:31:32;13.50;;;2.17;;
77451;SDS011;66537;52.370;4.832;2023-03-14T03:33:57;17.23;;;2.43;;
77451;SDS011;66537;52.370;4.832;2023-03-14T03:36:23;19.90;;;3.28;;
77451;SDS011;66537;52.370;4.832;2023-03-14T03:38:49;13.82;;;2.78;;
77451;SDS011;66537;52.370;4.832;2023-03-14T03:41:15;15.00;;;2.65;;
77451;SDS011;66537;52.370;4.832;2023-03-14T03:43:40;14.52;;;2.47;;
77451;SDS011;66537;52.370;4.832;2023-03-14T03:46:06;12.82;;;2.08;;
77451;SDS011;66537;52.370;4.832;2023-03-14T03:48:31;15.32;;;2.67;;
77451;SDS011;66537;52.370;4.832;2023-03-14T03:50:57;12.63;;;2.70;;
77451;SDS011;66537;52.370;4.832;2023-03-14T03:53:22;14.65;;;2.53;;
77451;SDS011;66537;52.370;4.832;2023-03-14T03:55:48;15.85;;;3.42;;
77451;SDS011;66537;52.370;4.832;2023-03-14T03:58:13;14.18;;;2.63;;
77451;SDS011;66537;52.370;4.832;2023-03-14T04:00:39;12.13;;;2.70;;
77451;SDS011;66537;52.370;4.832;2023-03-14T04:03:04;14.18;;;2.90;;
77451;SDS011;66537;52.370;4.832;2023-03-14T04:05:30;14.48;;;2.22;;
77451;SDS011;66537;52.370;4.832;2023-03-14T04:07:55;13.13;;;2.67;;
77451;SDS011;66537;52.370;4.832;2023-03-14T04:10:21;16.80;;;2.53;;
77451;SDS011;66537;52.370;4.832;2023-03-14T04:12:46;15.60;;;2.40;;
77451;SDS011;66537;52.370;4.832;2023-03-14T04:15:11;24.03;;;4.23;;
77451;SDS011;66537;52.370;4.832;2023-03-14T04:17:37;17.37;;;2.77;;
77451;SDS011;66537;52.370;4.832;2023-03-14T04:20:02;22.05;;;3.95;;
77451;SDS011;66537;52.370;4.832;2023-03-14T04:22:29;16.90;;;3.95;;
77451;SDS011;66537;52.370;4.832;2023-03-14T04:24:54;15.13;;;4.00;;
77451;SDS011;66537;52.370;4.832;2023-03-14T04:27:19;16.65;;;3.78;;
77451;SDS011;66537;52.370;4.832;2023-03-14T04:29:45;20.63;;;4.40;;
77451;SDS011;66537;52.370;4.832;2023-03-14T04:32:10;15.00;;;3.47;;
77451;SDS011;66537;52.370;4.832;2023-03-14T04:34:36;17.08;;;3.40;;
77451;SDS011;66537;52.370;4.832;2023-03-14T04:37:01;12.07;;;4.03;;
77451;SDS011;66537;52.370;4.832;2023-03-14T04:39:27;16.77;;;4.03;;
77451;SDS011;66537;52.370;4.832;2023-03-14T04:41:52;13.52;;;3.53;;
77451;SDS011;66537;52.370;4.832;2023-03-14T04:44:18;15.77;;;4.25;;
77451;SDS011;66537;52.370;4.832;2023-03-14T04:46:43;13.38;;;4.20;;
77451;SDS011;66537;52.370;4.832;2023-03-14T04:49:08;14.23;;;4.60;;
77451;SDS011;66537;52.370;4.832;2023-03-14T04:51:34;22.48;;;5.18;;
77451;SDS011;66537;52.370;4.832;2023-03-14T04:53:59;18.88;;;5.05;;
77451;SDS011;66537;52.370;4.832;2023-03-14T04:56:24;13.63;;;4.33;;
77451;SDS011;66537;52.370;4.832;2023-03-14T04:58:50;14.10;;;4.07;;
77451;SDS011;66537;52.370;4.832;2023-03-14T05:01:15;17.88;;;4.55;;
77451;SDS011;66537;52.370;4.832;2023-03-14T05:03:42;22.65;;;5.22;;
77451;SDS011;66537;52.370;4.832;2023-03-14T05:06:08;16.30;;;4.32;;
77451;SDS011;66537;52.370;4.832;2023-03-14T05:08:33;16.77;;;4.93;;
77451;SDS011;66537;52.370;4.832;2023-03-14T05:10:58;21.20;;;4.43;;
77451;SDS011;66537;52.370;4.832;2023-03-14T05:13:24;19.02;;;4.13;;
77451;SDS011;66537;52.370;4.832;2023-03-14T05:15:50;19.17;;;5.28;;
77451;SDS011;66537;52.370;4.832;2023-03-14T05:20:45;9.47;;;2.80;;
77451;SDS011;66537;52.370;4.832;2023-03-14T05:23:10;12.50;;;3.17;;
77451;SDS011;66537;52.370;4.832;2023-03-14T05:25:36;12.93;;;3.58;;
77451;SDS011;66537;52.370;4.832;2023-03-14T05:28:01;12.93;;;3.13;;
77451;SDS011;66537;52.370;4.832;2023-03-14T05:30:26;10.50;;;3.40;;
77451;SDS011;66537;52.370;4.832;2023-03-14T05:32:53;14.25;;;3.33;;
77451;SDS011;66537;52.370;4.832;2023-03-14T05:35:18;11.82;;;3.15;;
77451;SDS011;66537;52.370;4.832;2023-03-14T05:37:44;7.82;;;1.42;;
77451;SDS011;66537;52.370;4.832;2023-03-14T05:40:10;8.85;;;1.02;;
77451;SDS011;66537;52.370;4.832;2023-03-14T05:42:35;5.22;;;0.88;;
77451;SDS011;66537;52.370;4.832;2023-03-14T05:45:01;9.13;;;0.70;;
77451;SDS011;66537;52.370;4.832;2023-03-14T05:47:26;9.20;;;1.70;;
77451;SDS011;66537;52.370;4.832;2023-03-14T05:49:51;9.57;;;1.07;;
77451;SDS011;66537;52.370;4.832;2023-03-14T05:52:17;11.23;;;1.80;;
77451;SDS011;66537;52.370;4.832;2023-03-14T05:54:42;11.70;;;1.90;;
77451;SDS011;66537;52.370;4.832;2023-03-14T05:57:07;11.70;;;1.90;;
77451;SDS011;66537;52.370;4.832;2023-03-14T05:59:33;11.82;;;2.08;;
77451;SDS011;66537;52.370;4.832;2023-03-14T06:01:58;6.97;;;1.93;;
77451;SDS011;66537;52.370;4.832;2023-03-14T06:04:24;8.77;;;1.98;;
77451;SDS011;66537;52.370;4.832;2023-03-14T06:06:49;12.48;;;1.73;;
77451;SDS011;66537;52.370;4.832;2023-03-14T06:09:15;7.22;;;1.20;;
77451;SDS011;66537;52.370;4.832;2023-03-14T06:11:40;6.53;;;1.65;;
77451;SDS011;66537;52.370;4.832;2023-03-14T06:14:06;6.43;;;0.95;;
77451;SDS011;66537;52.370;4.832;2023-03-14T06:16:31;5.43;;;0.63;;
77451;SDS011;66537;52.370;4.832;2023-03-14T06:18:57;5.40;;;0.88;;
77451;SDS011;66537;52.370;4.832;2023-03-14T06:21:23;6.47;;;1.10;;
77451;SDS011;66537;52.370;4.832;2023-03-14T06:23:56;6.70;;;1.00;;
77451;SDS011;66537;52.370;4.832;2023-03-14T06:26:22;8.75;;;1.08;;
77451;SDS011;66537;52.370;4.832;2023-03-14T06:28:48;12.40;;;1.40;;
77451;SDS011;66537;52.370;4.832;2023-03-14T06:31:13;15.82;;;1.85;;
77451;SDS011;66537;52.370;4.832;2023-03-14T06:33:39;7.05;;;1.50;;
77451;SDS011;66537;52.370;4.832;2023-03-14T06:36:04;7.27;;;1.50;;
77451;SDS011;66537;52.370;4.832;2023-03-14T06:38:30;4.03;;;0.60;;
77451;SDS011;66537;52.370;4.832;2023-03-14T06:40:55;2.63;;;0.27;;
77451;SDS011;66537;52.370;4.832;2023-03-14T06:43:20;6.20;;;0.60;;
77451;SDS011;66537;52.370;4.832;2023-03-14T06:45:46;6.57;;;0.87;;
77451;SDS011;66537;52.370;4.832;2023-03-14T06:48:11;4.88;;;0.57;;
77451;SDS011;66537;52.370;4.832;2023-03-14T06:50:36;9.90;;;0.73;;
77451;SDS011;66537;52.370;4.832;2023-03-14T06:53:02;5.30;;;0.50;;
77451;SDS011;66537;52.370;4.832;2023-03-14T06:55:27;6.23;;;0.77;;
77451;SDS011;66537;52.370;4.832;2023-03-14T06:57:52;8.40;;;0.90;;
77451;SDS011;66537;52.370;4.832;2023-03-14T07:00:18;5.63;;;0.50;;
77451;SDS011;66537;52.370;4.832;2023-03-14T07:02:43;6.50;;;0.40;;
77451;SDS011;66537;52.370;4.832;2023-03-14T07:05:09;7.47;;;0.67;;
77451;SDS011;66537;52.370;4.832;2023-03-14T07:07:37;8.77;;;0.60;;
77451;SDS011;66537;52.370;4.832;2023-03-14T07:10:03;6.53;;;0.50;;
77451;SDS011;66537;52.370;4.832;2023-03-14T07:12:29;5.60;;;0.50;;
77451;SDS011;66537;52.370;4.832;2023-03-14T07:14:54;7.17;;;1.30;;
77451;SDS011;66537;52.370;4.832;2023-03-14T07:17:19;9.27;;;1.77;;
77451;SDS011;66537;52.370;4.832;2023-03-14T07:19:44;14.93;;;1.70;;
77451;SDS011;66537;52.370;4.832;2023-03-14T07:22:10;8.52;;;1.27;;
77451;SDS011;66537;52.370;4.832;2023-03-14T07:24:35;13.80;;;2.30;;
77451;SDS011;66537;52.370;4.832;2023-03-14T07:27:00;9.77;;;0.93;;
77451;SDS011;66537;52.370;4.832;2023-03-14T07:29:26;8.10;;;0.93;;
77451;SDS011;66537;52.370;4.832;2023-03-14T07:31:51;5.82;;;0.88;;
77451;SDS011;66537;52.370;4.832;2023-03-14T07:34:17;7.72;;;0.90;;
77451;SDS011;66537;52.370;4.832;2023-03-14T07:36:42;8.33;;;0.93;;
77451;SDS011;66537;52.370;4.832;2023-03-14T07:39:07;7.20;;;0.83;;
77451;SDS011;66537;52.370;4.832;2023-03-14T07:41:33;8.80;;;1.10;;
77451;SDS011;66537;52.370;4.832;2023-03-14T07:43:58;7.20;;;0.47;;
77451;SDS011;66537;52.370;4.832;2023-03-14T07:46:24;6.80;;;0.70;;
77451;SDS011;66537;52.370;4.832;2023-03-14T07:48:49;8.02;;;0.60;;
77451;SDS011;66537;52.370;4.832;2023-03-14T07:51:15;5.60;;;0.60;;
77451;SDS011;66537;52.370;4.832;2023-03-14T07:53:40;9.82;;;0.52;;
77451;SDS011;66537;52.370;4.832;2023-03-14T07:56:08;9.75;;;1.27;;
77451;SDS011;66537;52.370;4.832;2023-03-14T07:58:33;10.63;;;0.70;;
77451;SDS011;66537;52.370;4.832;2023-03-14T08:00:59;9.87;;;0.70;;
77451;SDS011;66537;52.370;4.832;2023-03-14T08:03:24;10.80;;;1.35;;
77451;SDS011;66537;52.370;4.832;2023-03-14T08:05:50;6.63;;;0.80;;
77451;SDS011;66537;52.370;4.832;2023-03-14T08:08:15;7.22;;;0.93;;
77451;SDS011;66537;52.370;4.832;2023-03-14T08:10:42;8.13;;;0.63;;
77451;SDS011;66537;52.370;4.832;2023-03-14T08:13:08;7.50;;;0.32;;
77451;SDS011;66537;52.370;4.832;2023-03-14T08:15:34;9.73;;;0.55;;
77451;SDS011;66537;52.370;4.832;2023-03-14T08:18:00;8.13;;;0.90;;
77451;SDS011;66537;52.370;4.832;2023-03-14T08:20:26;8.87;;;0.97;;
77451;SDS011;66537;52.370;4.832;2023-03-14T08:22:57;10.73;;;0.80;;
77451;SDS011;66537;52.370;4.832;2023-03-14T08:25:23;6.70;;;0.75;;
77451;SDS011;66537;52.370;4.832;2023-03-14T08:27:49;5.85;;;0.60;;
77451;SDS011;66537;52.370;4.832;2023-03-14T08:30:15;8.82;;;0.85;;
77451;SDS011;66537;52.370;4.832;2023-03-14T08:32:41;11.52;;;1.17;;
77451;SDS011;66537;52.370;4.832;2023-03-14T08:35:07;11.98;;;1.35;;
77451;SDS011;66537;52.370;4.832;2023-03-14T08:37:33;12.30;;;1.58;;
77451;SDS011;66537;52.370;4.832;2023-03-14T08:39:59;11.65;;;1.85;;
77451;SDS011;66537;52.370;4.832;2023-03-14T08:42:25;13.73;;;1.15;;
77451;SDS011;66537;52.370;4.832;2023-03-14T08:44:51;17.63;;;1.63;;
77451;SDS011;66537;52.370;4.832;2023-03-14T08:47:17;12.27;;;1.40;;
77451;SDS011;66537;52.370;4.832;2023-03-14T08:49:43;17.45;;;1.55;;
77451;SDS011;66537;52.370;4.832;2023-03-14T08:52:08;19.43;;;2.13;;
77451;SDS011;66537;52.370;4.832;2023-03-14T08:54:34;16.35;;;2.45;;
77451;SDS011;66537;52.370;4.832;2023-03-14T08:56:59;17.48;;;2.00;;
77451;SDS011;66537;52.370;4.832;2023-03-14T08:59:25;16.63;;;1.88;;
77451;SDS011;66537;52.370;4.832;2023-03-14T09:01:50;11.83;;;1.37;;
77451;SDS011;66537;52.370;4.832;2023-03-14T09:04:16;13.53;;;2.57;;
77451;SDS011;66537;52.370;4.832;2023-03-14T09:06:41;18.80;;;2.42;;
77451;SDS011;66537;52.370;4.832;2023-03-14T09:09:06;14.23;;;2.22;;
77451;SDS011;66537;52.370;4.832;2023-03-14T09:11:32;21.63;;;2.05;;
77451;SDS011;66537;52.370;4.832;2023-03-14T09:13:57;19.67;;;2.72;;
77451;SDS011;66537;52.370;4.832;2023-03-14T09:16:23;18.50;;;2.15;;
77451;SDS011;66537;52.370;4.832;2023-03-14T09:18:48;14.80;;;2.08;;
77451;SDS011;66537;52.370;4.832;2023-03-14T09:21:14;16.73;;;2.67;;
77451;SDS011;66537;52.370;4.832;2023-03-14T09:23:40;15.73;;;1.92;;
77451;SDS011;66537;52.370;4.832;2023-03-14T09:26:06;13.98;;;1.67;;
77451;SDS011;66537;52.370;4.832;2023-03-14T09:28:32;19.23;;;3.05;;
77451;SDS011;66537;52.370;4.832;2023-03-14T09:30:58;13.20;;;2.03;;
77451;SDS011;66537;52.370;4.832;2023-03-14T09:33:30;15.43;;;1.92;;
77451;SDS011;66537;52.370;4.832;2023-03-14T09:35:58;16.90;;;2.03;;
77451;SDS011;66537;52.370;4.832;2023-03-14T09:38:24;12.27;;;2.55;;
77451;SDS011;66537;52.370;4.832;2023-03-14T09:40:50;17.38;;;2.25;;
77451;SDS011;66537;52.370;4.832;2023-03-14T09:43:15;20.92;;;2.20;;
77451;SDS011;66537;52.370;4.832;2023-03-14T09:45:41;20.50;;;2.22;;
77451;SDS011;66537;52.370;4.832;2023-03-14T09:48:12;17.70;;;2.05;;
77451;SDS011;66537;52.370;4.832;2023-03-14T09:50:43;24.35;;;3.65;;
77451;SDS011;66537;52.370;4.832;2023-03-14T09:53:18;17.05;;;2.55;;
77451;SDS011;66537;52.370;4.832;2023-03-14T09:55:47;16.42;;;2.13;;
77451;SDS011;66537;52.370;4.832;2023-03-14T09:58:16;15.95;;;2.00;;
77451;SDS011;66537;52.370;4.832;2023-03-14T10:00:44;21.23;;;2.60;;
77451;SDS011;66537;52.370;4.832;2023-03-14T10:05:39;22.83;;;2.78;;
77451;SDS011;66537;52.370;4.832;2023-03-14T10:08:05;17.48;;;2.80;;
77451;SDS011;66537;52.370;4.832;2023-03-14T10:10:31;27.38;;;3.30;;
77451;SDS011;66537;52.370;4.832;2023-03-14T10:12:58;27.67;;;2.63;;
77451;SDS011;66537;52.370;4.832;2023-03-14T10:15:30;22.88;;;2.63;;
77451;SDS011;66537;52.370;4.832;2023-03-14T10:17:58;16.13;;;2.13;;
77451;SDS011;66537;52.370;4.832;2023-03-14T10:20:39;19.02;;;3.03;;
77451;SDS011;66537;52.370;4.832;2023-03-14T10:25:40;18.60;;;2.20;;
77451;SDS011;66537;52.370;4.832;2023-03-14T10:28:11;17.77;;;2.65;;
77451;SDS011;66537;52.370;4.832;2023-03-14T10:30:50;11.85;;;1.67;;
77451;SDS011;66537;52.370;4.832;2023-03-14T10:35:43;14.60;;;2.40;;
77451;SDS011;66537;52.370;4.832;2023-03-14T10:38:13;14.55;;;1.30;;
77451;SDS011;66537;52.370;4.832;2023-03-14T10:40:45;12.95;;;1.60;;
77451;SDS011;66537;52.370;4.832;2023-03-14T10:43:18;17.15;;;2.00;;
77451;SDS011;66537;52.370;4.832;2023-03-14T10:45:54;11.80;;;1.42;;
77451;SDS011;66537;52.370;4.832;2023-03-14T10:48:36;13.60;;;1.52;;
77451;SDS011;66537;52.370;4.832;2023-03-14T10:51:06;15.13;;;1.98;;
77451;SDS011;66537;52.370;4.832;2023-03-14T10:53:48;16.08;;;1.73;;
77451;SDS011;66537;52.370;4.832;2023-03-14T10:56:21;12.63;;;1.98;;
77451;SDS011;66537;52.370;4.832;2023-03-14T10:58:52;10.60;;;1.50;;
77451;SDS011;66537;52.370;4.832;2023-03-14T11:07:16;14.35;;;2.03;;
77451;SDS011;66537;52.370;4.832;2023-03-14T11:15:19;10.35;;;1.42;;
77451;SDS011;66537;52.370;4.832;2023-03-14T11:18:16;15.23;;;1.95;;
77451;SDS011;66537;52.370;4.832;2023-03-14T11:26:16;12.40;;;1.23;;
77451;SDS011;66537;52.370;4.832;2023-03-14T11:29:02;10.90;;;1.23;;
77451;SDS011;66537;52.370;4.832;2023-03-14T11:31:41;10.57;;;1.50;;
77451;SDS011;66537;52.370;4.832;2023-03-14T11:39:13;11.20;;;1.38;;
77451;SDS011;66537;52.370;4.832;2023-03-14T11:41:41;13.60;;;1.70;;
77451;SDS011;66537;52.370;4.832;2023-03-14T11:44:14;10.45;;;1.33;;
77451;SDS011;66537;52.370;4.832;2023-03-14T11:54:58;13.20;;;1.50;;
77451;SDS011;66537;52.370;4.832;2023-03-14T11:57:46;7.88;;;1.55;;
77451;SDS011;66537;52.370;4.832;2023-03-14T12:00:14;9.25;;;0.80;;
77451;SDS011;66537;52.370;4.832;2023-03-14T12:02:47;12.50;;;1.23;;
77451;SDS011;66537;52.370;4.832;2023-03-14T12:10:41;9.25;;;1.30;;
77451;SDS011;66537;52.370;4.832;2023-03-14T12:15:47;15.63;;;1.13;;
77451;SDS011;66537;52.370;4.832;2023-03-14T12:18:28;11.02;;;1.30;;
77451;SDS011;66537;52.370;4.832;2023-03-14T12:20:57;7.63;;;1.42;;
77451;SDS011;66537;52.370;4.832;2023-03-14T12:23:25;7.78;;;0.93;;
77451;SDS011;66537;52.370;4.832;2023-03-14T12:29:14;10.77;;;1.48;;
77451;SDS011;66537;52.370;4.832;2023-03-14T12:31:42;12.15;;;0.70;;
77451;SDS011;66537;52.370;4.832;2023-03-14T12:41:46;9.80;;;0.85;;
77451;SDS011;66537;52.370;4.832;2023-03-14T12:46:56;12.52;;;1.33;;
77451;SDS011;66537;52.370;4.832;2023-03-14T12:49:22;12.88;;;1.38;;
77451;SDS011;66537;52.370;4.832;2023-03-14T12:52:01;8.70;;;1.45;;
77451;SDS011;66537;52.370;4.832;2023-03-14T12:54:50;6.53;;;0.95;;
77451;SDS011;66537;52.370;4.832;2023-03-14T12:59:59;9.32;;;0.73;;
77451;SDS011;66537;52.370;4.832;2023-03-14T13:02:40;8.90;;;0.90;;
77451;SDS011;66537;52.370;4.832;2023-03-14T13:17:53;10.50;;;1.50;;
77451;SDS011;66537;52.370;4.832;2023-03-14T13:20:28;9.00;;;0.90;;
77451;SDS011;66537;52.370;4.832;2023-03-14T13:22:57;6.35;;;0.93;;
77451;SDS011;66537;52.370;4.832;2023-03-14T13:25:22;9.10;;;1.05;;
77451;SDS011;66537;52.370;4.832;2023-03-14T13:27:51;9.57;;;1.10;;
77451;SDS011;66537;52.370;4.832;2023-03-14T13:30:22;13.70;;;1.13;;
77451;SDS011;66537;52.370;4.832;2023-03-14T13:32:50;12.20;;;1.23;;
77451;SDS011;66537;52.370;4.832;2023-03-14T13:35:25;9.68;;;1.05;;
77451;SDS011;66537;52.370;4.832;2023-03-14T13:37:59;8.93;;;0.90;;
77451;SDS011;66537;52.370;4.832;2023-03-14T13:40:30;11.55;;;1.42;;
77451;SDS011;66537;52.370;4.832;2023-03-14T13:43:02;8.90;;;1.05;;
77451;SDS011;66537;52.370;4.832;2023-03-14T13:45:50;8.55;;;1.38;;
77451;SDS011;66537;52.370;4.832;2023-03-14T13:48:27;11.05;;;0.93;;
77451;SDS011;66537;52.370;4.832;2023-03-14T13:51:04;11.65;;;1.60;;
77451;SDS011;66537;52.370;4.832;2023-03-14T13:53:32;7.70;;;1.00;;
77451;SDS011;66537;52.370;4.832;2023-03-14T13:56:08;11.80;;;1.27;;
77451;SDS011;66537;52.370;4.832;2023-03-14T13:58:35;8.63;;;0.77;;
77451;SDS011;66537;52.370;4.832;2023-03-14T14:01:10;8.23;;;0.98;;
77451;SDS011;66537;52.370;4.832;2023-03-14T14:06:27;9.45;;;1.27;;
77451;SDS011;66537;52.370;4.832;2023-03-14T14:08:52;8.82;;;1.83;;
77451;SDS011;66537;52.370;4.832;2023-03-14T14:11:21;11.80;;;1.23;;
77451;SDS011;66537;52.370;4.832;2023-03-14T14:13:55;5.07;;;0.80;;
77451;SDS011;66537;52.370;4.832;2023-03-14T14:16:23;7.38;;;0.93;;
77451;SDS011;66537;52.370;4.832;2023-03-14T14:18:50;7.82;;;0.60;;
77451;SDS011;66537;52.370;4.832;2023-03-14T14:21:17;9.70;;;0.88;;
77451;SDS011;66537;52.370;4.832;2023-03-14T14:23:43;8.15;;;1.00;;
77451;SDS011;66537;52.370;4.832;2023-03-14T14:26:13;5.80;;;1.10;;
77451;SDS011;66537;52.370;4.832;2023-03-14T14:28:41;6.28;;;0.68;;
77451;SDS011;66537;52.370;4.832;2023-03-14T14:31:22;8.20;;;0.63;;
77451;SDS011;66537;52.370;4.832;2023-03-14T14:34:00;9.45;;;0.88;;
77451;SDS011;66537;52.370;4.832;2023-03-14T14:36:31;7.35;;;0.60;;
77451;SDS011;66537;52.370;4.832;2023-03-14T14:39:09;7.60;;;0.45;;
77451;SDS011;66537;52.370;4.832;2023-03-14T14:41:40;6.85;;;0.77;;
77451;SDS011;66537;52.370;4.832;2023-03-14T14:44:10;8.80;;;0.93;;
77451;SDS011;66537;52.370;4.832;2023-03-14T14:46:38;8.50;;;0.82;;
77451;SDS011;66537;52.370;4.832;2023-03-14T14:49:06;10.13;;;1.15;;
77451;SDS011;66537;52.370;4.832;2023-03-14T14:51:42;10.80;;;1.00;;
77451;SDS011;66537;52.370;4.832;2023-03-14T14:56:39;7.43;;;1.00;;
77451;SDS011;66537;52.370;4.832;2023-03-14T14:59:06;6.70;;;0.68;;
77451;SDS011;66537;52.370;4.832;2023-03-14T15:01:43;7.97;;;1.00;;
77451;SDS011;66537;52.370;4.832;2023-03-14T15:04:12;11.53;;;0.93;;
77451;SDS011;66537;52.370;4.832;2023-03-14T15:06:41;7.93;;;0.77;;
77451;SDS011;66537;52.370;4.832;2023-03-14T15:09:09;9.63;;;1.00;;
77451;SDS011;66537;52.370;4.832;2023-03-14T15:11:36;7.55;;;0.85;;
77451;SDS011;66537;52.370;4.832;2023-03-14T15:14:01;14.88;;;0.90;;
77451;SDS011;66537;52.370;4.832;2023-03-14T15:16:28;6.20;;;0.82;;
77451;SDS011;66537;52.370;4.832;2023-03-14T15:18:57;11.68;;;1.20;;
77451;SDS011;66537;52.370;4.832;2023-03-14T15:21:24;12.15;;;0.95;;
77451;SDS011;66537;52.370;4.832;2023-03-14T15:23:50;9.85;;;0.80;;
77451;SDS011;66537;52.370;4.832;2023-03-14T15:26:34;11.15;;;1.52;;
77451;SDS011;66537;52.370;4.832;2023-03-14T15:29:00;11.48;;;1.02;;
77451;SDS011;66537;52.370;4.832;2023-03-14T15:31:25;9.82;;;0.80;;
77451;SDS011;66537;52.370;4.832;2023-03-14T15:33:50;7.95;;;1.17;;
77451;SDS011;66537;52.370;4.832;2023-03-14T15:36:21;8.40;;;1.35;;
77451;SDS011;66537;52.370;4.832;2023-03-14T15:38:48;11.98;;;0.93;;
77451;SDS011;66537;52.370;4.832;2023-03-14T15:41:13;10.95;;;0.90;;
77451;SDS011;66537;52.370;4.832;2023-03-14T15:43:40;14.27;;;1.30;;
77451;SDS011;66537;52.370;4.832;2023-03-14T15:46:07;7.20;;;1.08;;
77451;SDS011;66537;52.370;4.832;2023-03-14T15:48:34;10.13;;;0.73;;
77451;SDS011;66537;52.370;4.832;2023-03-14T15:50:59;9.65;;;1.17;;
77451;SDS011;66537;52.370;4.832;2023-03-14T15:53:25;6.67;;;0.87;;
77451;SDS011;66537;52.370;4.832;2023-03-14T15:55:50;11.40;;;0.70;;
77451;SDS011;66537;52.370;4.832;2023-03-14T15:58:17;14.70;;;1.40;;
77451;SDS011;66537;52.370;4.832;2023-03-14T16:00:43;13.68;;;0.98;;
77451;SDS011;66537;52.370;4.832;2023-03-14T16:03:08;11.68;;;0.85;;
77451;SDS011;66537;52.370;4.832;2023-03-14T16:05:35;9.55;;;1.00;;
77451;SDS011;66537;52.370;4.832;2023-03-14T16:08:01;9.98;;;0.75;;
77451;SDS011;66537;52.370;4.832;2023-03-14T16:10:28;7.47;;;1.02;;
77451;SDS011;66537;52.370;4.832;2023-03-14T16:12:53;8.50;;;0.80;;
77451;SDS011;66537;52.370;4.832;2023-03-14T16:15:19;7.57;;;0.75;;
77451;SDS011;66537;52.370;4.832;2023-03-14T16:17:44;8.03;;;0.83;;
77451;SDS011;66537;52.370;4.832;2023-03-14T16:20:10;6.97;;;0.93;;